BEL2372 EYVI-EBBR
Flight info
| Callsign | BEL2372 |
|---|---|
| Flight time | N/A |
| Altitude | 38000 |
| Route | UPASI DCT TUNGA DCT SUWGI DCT ELKAR DCT DEKUT DCT GILAS DCT EMBOX DCT TOLGI DCT ABAMI Z717 NEREL T855 BATTY |
| Aircraft | A320/M-SDE3FGHIRWY/LB1 |
Departure
| Time | 2026-05-07 12:43 |
|---|---|
| Airport | Vilnius International Airport (EYVI) |
Arrival
| Time | N/A |
|---|---|
| Airport | Brussels Airport (EBBR) |
| Time | Latitude | Longitude | Altitude | Speed | Heading |
|---|---|---|---|---|---|
| 2026-05-07 12:32 | 54.64367 | 25.28275 | 637 ft | 0 kts | 209° |
| 2026-05-07 12:36 | 54.64375 | 25.28282 | 641 ft | 4 kts | 210° |
| 2026-05-07 12:36 | 54.64398 | 25.28305 | 644 ft | 4 kts | 201° |
| 2026-05-07 12:36 | 54.64418 | 25.28311 | 639 ft | 4 kts | 129° |
| 2026-05-07 12:36 | 54.64421 | 25.28306 | 638 ft | 0 kts | 117° |
| 2026-05-07 12:39 | 54.64397 | 25.28377 | 639 ft | 14 kts | 138° |
| 2026-05-07 12:39 | 54.64255 | 25.28364 | 639 ft | 26 kts | 189° |
| 2026-05-07 12:39 | 54.64126 | 25.28379 | 639 ft | 10 kts | 109° |
| 2026-05-07 12:39 | 54.64120 | 25.28525 | 642 ft | 17 kts | 92° |
| 2026-05-07 12:40 | 54.64075 | 25.28700 | 645 ft | 16 kts | 167° |
| 2026-05-07 12:40 | 54.63956 | 25.28649 | 639 ft | 20 kts | 204° |
| 2026-05-07 12:40 | 54.63808 | 25.28546 | 635 ft | 26 kts | 202° |
| 2026-05-07 12:40 | 54.63621 | 25.28415 | 620 ft | 32 kts | 202° |
| 2026-05-07 12:41 | 54.63399 | 25.28258 | 614 ft | 35 kts | 202° |
| 2026-05-07 12:41 | 54.63171 | 25.28102 | 610 ft | 36 kts | 201° |
| 2026-05-07 12:41 | 54.62933 | 25.27936 | 608 ft | 38 kts | 202° |
| 2026-05-07 12:41 | 54.62686 | 25.27764 | 601 ft | 39 kts | 201° |
| 2026-05-07 12:42 | 54.62496 | 25.27699 | 616 ft | 22 kts | 146° |
| 2026-05-07 12:42 | 54.62430 | 25.27875 | 604 ft | 17 kts | 60° |
| 2026-05-07 12:42 | 54.62499 | 25.27942 | 602 ft | 7 kts | 21° |
| 2026-05-07 12:42 | 54.62646 | 25.28041 | 600 ft | 53 kts | 22° |
| 2026-05-07 12:43 | 54.63220 | 25.28439 | 607 ft | 121 kts | 21° |
| 2026-05-07 12:43 | 54.64156 | 25.29073 | 812 ft | 155 kts | 19° |
| 2026-05-07 12:43 | 54.65169 | 25.29753 | 1512 ft | 159 kts | 19° |
| 2026-05-07 12:43 | 54.66207 | 25.30469 | 2214 ft | 163 kts | 17° |
| 2026-05-07 12:44 | 54.67260 | 25.31203 | 2802 ft | 163 kts | 18° |
| 2026-05-07 12:44 | 54.68315 | 25.31944 | 3357 ft | 164 kts | 19° |
| 2026-05-07 12:44 | 54.69379 | 25.32690 | 3846 ft | 167 kts | 16° |
| 2026-05-07 12:44 | 54.70523 | 25.33481 | 4089 ft | 188 kts | 17° |
| 2026-05-07 12:45 | 54.71816 | 25.34373 | 4312 ft | 211 kts | 18° |
| 2026-05-07 12:45 | 54.73255 | 25.35371 | 4560 ft | 234 kts | 18° |
| 2026-05-07 12:45 | 54.74840 | 25.36472 | 4850 ft | 257 kts | 18° |
| 2026-05-07 12:45 | 54.76533 | 25.37657 | 5468 ft | 267 kts | 18° |
| 2026-05-07 12:46 | 54.78308 | 25.38633 | 6198 ft | 267 kts | 359° |
| 2026-05-07 12:46 | 54.80093 | 25.38145 | 6884 ft | 258 kts | 327° |
| 2026-05-07 12:46 | 54.81476 | 25.36197 | 7334 ft | 261 kts | 297° |
| 2026-05-07 12:46 | 54.82212 | 25.33413 | 7982 ft | 263 kts | 286° |
| 2026-05-07 12:47 | 54.82878 | 25.30461 | 8776 ft | 267 kts | 286° |
| 2026-05-07 12:47 | 54.83479 | 25.27401 | 9574 ft | 268 kts | 275° |
| 2026-05-07 12:47 | 54.83438 | 25.24200 | 10199 ft | 271 kts | 254° |
| 2026-05-07 12:47 | 54.82594 | 25.21185 | 10425 ft | 290 kts | 230° |
| 2026-05-07 12:48 | 54.80942 | 25.19019 | 10789 ft | 309 kts | 206° |
| 2026-05-07 12:48 | 54.78931 | 25.17597 | 11448 ft | 315 kts | 204° |
| 2026-05-07 12:48 | 54.76881 | 25.16182 | 12169 ft | 319 kts | 204° |
| 2026-05-07 12:48 | 54.74806 | 25.14754 | 12886 ft | 323 kts | 204° |
| 2026-05-07 12:49 | 54.72706 | 25.13305 | 13571 ft | 327 kts | 205° |
| 2026-05-07 12:49 | 54.70706 | 25.11417 | 14180 ft | 329 kts | 217° |
| 2026-05-07 12:49 | 54.68973 | 25.08827 | 14808 ft | 330 kts | 226° |
| 2026-05-07 12:49 | 54.67346 | 25.06001 | 15470 ft | 333 kts | 226° |
| 2026-05-07 12:50 | 54.65703 | 25.03161 | 16105 ft | 335 kts | 226° |
| 2026-05-07 12:50 | 54.64046 | 25.00311 | 16765 ft | 338 kts | 226° |
| 2026-05-07 12:50 | 54.62377 | 24.97448 | 17423 ft | 339 kts | 226° |
| 2026-05-07 12:50 | 54.60695 | 24.94568 | 18048 ft | 342 kts | 226° |
| 2026-05-07 12:51 | 54.58999 | 24.91669 | 18617 ft | 345 kts | 226° |
| 2026-05-07 12:51 | 54.57291 | 24.88754 | 19144 ft | 347 kts | 226° |
| 2026-05-07 12:51 | 54.55566 | 24.85813 | 19703 ft | 350 kts | 226° |
| 2026-05-07 12:51 | 54.53831 | 24.82859 | 20248 ft | 352 kts | 225° |
| 2026-05-07 12:52 | 54.52084 | 24.79881 | 20765 ft | 355 kts | 226° |
| 2026-05-07 12:52 | 54.50421 | 24.76729 | 21281 ft | 358 kts | 233° |
| 2026-05-07 12:52 | 54.49122 | 24.73065 | 21819 ft | 361 kts | 244° |
| 2026-05-07 12:52 | 54.48172 | 24.69054 | 22344 ft | 364 kts | 247° |
| 2026-05-07 12:53 | 54.47252 | 24.64979 | 22865 ft | 366 kts | 247° |
| 2026-05-07 12:53 | 54.46334 | 24.60933 | 23360 ft | 369 kts | 247° |
| 2026-05-07 12:53 | 54.45391 | 24.56811 | 23797 ft | 371 kts | 247° |
| 2026-05-07 12:53 | 54.44442 | 24.52681 | 24215 ft | 373 kts | 247° |
| 2026-05-07 12:54 | 54.43485 | 24.48528 | 24634 ft | 375 kts | 247° |
| 2026-05-07 12:54 | 54.42521 | 24.44351 | 25051 ft | 376 kts | 247° |
| 2026-05-07 12:54 | 54.41552 | 24.40155 | 25450 ft | 378 kts | 247° |
| 2026-05-07 12:54 | 54.40579 | 24.35956 | 25850 ft | 379 kts | 246° |
| 2026-05-07 12:55 | 54.39599 | 24.31740 | 26248 ft | 381 kts | 246° |
| 2026-05-07 12:55 | 54.38632 | 24.27499 | 26632 ft | 383 kts | 250° |
| 2026-05-07 12:55 | 54.37851 | 24.23121 | 26984 ft | 385 kts | 251° |
| 2026-05-07 12:55 | 54.37082 | 24.18714 | 27354 ft | 387 kts | 251° |
| 2026-05-07 12:56 | 54.36307 | 24.14288 | 27759 ft | 388 kts | 251° |
| 2026-05-07 12:56 | 54.35529 | 24.09859 | 28141 ft | 389 kts | 251° |
| 2026-05-07 12:56 | 54.34745 | 24.05414 | 28506 ft | 390 kts | 251° |
| 2026-05-07 12:56 | 54.33955 | 24.00962 | 28842 ft | 391 kts | 251° |
| 2026-05-07 12:57 | 54.33158 | 23.96494 | 29178 ft | 392 kts | 251° |
| 2026-05-07 12:57 | 54.32368 | 23.92077 | 29494 ft | 394 kts | 251° |
| 2026-05-07 12:57 | 54.31564 | 23.87585 | 29815 ft | 395 kts | 251° |
| 2026-05-07 12:57 | 54.30755 | 23.83078 | 30099 ft | 397 kts | 251° |
| 2026-05-07 12:58 | 54.29944 | 23.78555 | 30351 ft | 398 kts | 251° |
| 2026-05-07 12:58 | 54.29129 | 23.74024 | 30588 ft | 399 kts | 250° |
| 2026-05-07 12:58 | 54.28306 | 23.69478 | 30819 ft | 400 kts | 250° |
| 2026-05-07 12:58 | 54.27478 | 23.64925 | 31035 ft | 402 kts | 250° |
| 2026-05-07 12:59 | 54.26650 | 23.60364 | 31313 ft | 401 kts | 250° |
| 2026-05-07 12:59 | 54.25824 | 23.55815 | 31650 ft | 400 kts | 250° |
| 2026-05-07 12:59 | 54.24999 | 23.51284 | 31949 ft | 399 kts | 250° |
| 2026-05-07 12:59 | 54.24172 | 23.46767 | 32253 ft | 398 kts | 250° |
| 2026-05-07 13:00 | 54.23346 | 23.42260 | 32614 ft | 396 kts | 250° |
| 2026-05-07 13:00 | 54.22416 | 23.37861 | 32995 ft | 391 kts | 243° |
| 2026-05-07 13:00 | 54.21154 | 23.33769 | 33349 ft | 389 kts | 239° |
| 2026-05-07 13:00 | 54.19850 | 23.29733 | 33676 ft | 387 kts | 239° |
| 2026-05-07 13:01 | 54.18553 | 23.25708 | 33988 ft | 386 kts | 239° |
| 2026-05-07 13:01 | 54.17261 | 23.21697 | 34240 ft | 386 kts | 239° |
| 2026-05-07 13:01 | 54.15968 | 23.17686 | 34449 ft | 386 kts | 239° |
| 2026-05-07 13:01 | 54.14668 | 23.13667 | 34638 ft | 387 kts | 239° |
| 2026-05-07 13:02 | 54.13362 | 23.09640 | 34820 ft | 388 kts | 239° |
| 2026-05-07 13:02 | 54.12051 | 23.05611 | 35015 ft | 389 kts | 239° |
| 2026-05-07 13:02 | 54.10736 | 23.01575 | 35193 ft | 390 kts | 239° |
| 2026-05-07 13:02 | 54.09416 | 22.97537 | 35375 ft | 391 kts | 239° |
| 2026-05-07 13:03 | 54.08092 | 22.93485 | 35514 ft | 392 kts | 239° |
| 2026-05-07 13:03 | 54.06944 | 22.89259 | 35644 ft | 396 kts | 248° |
| 2026-05-07 13:03 | 54.06199 | 22.84723 | 35802 ft | 399 kts | 253° |
| 2026-05-07 13:03 | 54.05545 | 22.80131 | 35955 ft | 400 kts | 253° |
| 2026-05-07 13:04 | 54.04885 | 22.75534 | 36113 ft | 400 kts | 253° |
| 2026-05-07 13:04 | 54.04221 | 22.70931 | 36275 ft | 401 kts | 253° |
| 2026-05-07 13:04 | 54.03552 | 22.66323 | 36472 ft | 401 kts | 253° |
| 2026-05-07 13:04 | 54.02876 | 22.61713 | 36630 ft | 402 kts | 253° |
| 2026-05-07 13:05 | 54.02197 | 22.57098 | 36767 ft | 403 kts | 253° |
| 2026-05-07 13:05 | 54.01515 | 22.52481 | 36912 ft | 403 kts | 253° |
| 2026-05-07 13:05 | 54.00832 | 22.47853 | 37045 ft | 404 kts | 253° |
| 2026-05-07 13:05 | 54.00157 | 22.43278 | 37182 ft | 405 kts | 253° |
| 2026-05-07 13:06 | 53.99471 | 22.38640 | 37320 ft | 405 kts | 253° |
| 2026-05-07 13:06 | 53.98781 | 22.33993 | 37454 ft | 406 kts | 253° |
| 2026-05-07 13:06 | 53.98090 | 22.29351 | 37592 ft | 406 kts | 253° |
| 2026-05-07 13:06 | 53.97394 | 22.24694 | 37731 ft | 406 kts | 253° |
| 2026-05-07 13:07 | 53.96698 | 22.20048 | 37897 ft | 406 kts | 253° |
| 2026-05-07 13:07 | 53.96000 | 22.15396 | 37946 ft | 408 kts | 253° |
| 2026-05-07 13:07 | 53.94593 | 22.06057 | 37942 ft | 408 kts | 253° |
| 2026-05-07 13:08 | 53.93173 | 21.96723 | 37937 ft | 408 kts | 253° |
| 2026-05-07 13:08 | 53.91751 | 21.87393 | 37948 ft | 408 kts | 253° |
| 2026-05-07 13:09 | 53.90327 | 21.78071 | 37949 ft | 408 kts | 252° |
| 2026-05-07 13:09 | 53.88887 | 21.68758 | 37952 ft | 408 kts | 252° |
| 2026-05-07 13:10 | 53.87440 | 21.59442 | 37957 ft | 409 kts | 252° |
| 2026-05-07 13:10 | 53.85987 | 21.50138 | 37961 ft | 409 kts | 252° |
| 2026-05-07 13:11 | 53.84528 | 21.40835 | 37958 ft | 409 kts | 252° |
| 2026-05-07 13:11 | 53.83062 | 21.31525 | 37979 ft | 410 kts | 252° |
| 2026-05-07 13:12 | 53.81584 | 21.22209 | 37969 ft | 410 kts | 252° |
| 2026-05-07 13:12 | 53.80101 | 21.12957 | 37969 ft | 410 kts | 252° |
| 2026-05-07 13:13 | 53.78614 | 21.03635 | 37972 ft | 411 kts | 252° |
| 2026-05-07 13:13 | 53.77110 | 20.94325 | 37976 ft | 411 kts | 252° |
| 2026-05-07 13:14 | 53.75597 | 20.85015 | 37982 ft | 411 kts | 252° |
| 2026-05-07 13:14 | 53.74075 | 20.75709 | 37983 ft | 411 kts | 252° |